Time;durP1;ratioP1;P1;durP2;ratioP2;P2;SDS_P1;SDS_P2;PMS_P1;PMS_P2;Temp;Humidity;BMP_temperature;BMP_pressure;BME280_temperature;BME280_humidity;BME280_pressure;Samples;Min_cycle;Max_cycle;Signal;HPM_P1;HPM_P2
2021/04/11 00:01:10;;;;;;;18.98;14.93;;;10.70;99.90;;;;;;5092918;28;20395;-78
2021/04/11 00:03:35;;;;;;;23.17;14.93;;;10.70;99.90;;;;;;5093258;28;20395;-80
2021/04/11 00:06:01;;;;;;;18.13;13.98;;;10.70;99.90;;;;;;5077793;28;20387;-81
2021/04/11 00:08:29;;;;;;;18.20;14.50;;;10.80;99.90;;;;;;5095881;28;20466;-80
2021/04/11 00:10:59;;;;;;;19.48;14.70;;;10.70;99.90;;;;;;5094273;28;20379;-79
2021/04/11 00:13:28;;;;;;;19.17;14.20;;;10.60;99.90;;;;;;5088577;28;20388;-82
2021/04/11 00:15:55;;;;;;;23.67;14.47;;;10.70;99.90;;;;;;5091392;28;20356;-82
2021/04/11 00:18:21;;;;;;;20.85;14.43;;;10.70;99.90;;;;;;5078155;28;20413;-84
2021/04/11 00:20:46;;;;;;;20.47;14.43;;;10.70;99.90;;;;;;5076208;28;20453;-79
2021/04/11 00:23:12;;;;;;;22.93;14.13;;;10.60;99.90;;;;;;5078613;28;20398;-80
2021/04/11 00:25:39;;;;;;;25.13;14.43;;;10.60;99.90;;;;;;5095847;28;20419;-80
2021/04/11 00:28:09;;;;;;;19.00;13.50;;;10.60;99.90;;;;;;5093861;28;20403;-81
2021/04/11 00:30:38;;;;;;;18.02;14.05;;;10.60;99.90;;;;;;5093964;28;20376;-79
2021/04/11 00:33:07;;;;;;;22.00;13.90;;;10.60;99.90;;;;;;5078683;28;20398;-79
2021/04/11 00:35:33;;;;;;;21.13;13.80;;;10.60;99.90;;;;;;5078205;28;20392;-81
2021/04/11 00:38:00;;;;;;;17.90;14.40;;;10.60;99.90;;;;;;5094957;28;20455;-80
2021/04/11 00:40:27;;;;;;;18.10;13.63;;;10.70;99.90;;;;;;5077694;28;20429;-81
2021/04/11 00:43:15;;;;;;;19.77;13.77;;;10.70;99.90;;;;;;5093452;28;20391;-82
2021/04/11 00:45:46;;;;;;;17.75;12.52;;;10.70;99.90;;;;;;5068945;28;20427;-83
2021/04/11 00:48:17;;;;;;;18.88;13.65;;;10.60;99.90;;;;;;5083721;28;20709;-81
2021/04/11 00:51:00;;;;;;;15.82;13.30;;;10.50;99.90;;;;;;5072191;28;20882;-78
2021/04/11 00:53:26;;;;;;;17.27;12.93;;;10.40;99.90;;;;;;5069401;28;20459;-83
2021/04/11 00:55:52;;;;;;;17.25;13.27;;;10.40;99.90;;;;;;5088072;28;20422;-84
2021/04/11 00:58:20;;;;;;;16.60;11.85;;;10.40;99.90;;;;;;5092199;28;20451;-80
2021/04/11 01:00:46;;;;;;;20.23;12.95;;;10.40;99.90;;;;;;5099935;28;20368;-80
2021/04/11 01:03:21;;;;;;;21.58;12.98;;;10.40;99.90;;;;;;5093481;28;20384;-79
2021/04/11 01:05:49;;;;;;;19.10;12.77;;;10.40;99.90;;;;;;5071994;28;20430;-80
2021/04/11 01:08:19;;;;;;;18.65;12.63;;;10.50;99.90;;;;;;5076429;28;20383;-78
2021/04/11 01:11:24;;;;;;;16.85;13.18;;;10.50;99.90;;;;;;5077803;28;20399;-80
2021/04/11 01:13:52;;;;;;;16.05;12.23;;;10.50;99.90;;;;;;5074134;28;20395;-81
2021/04/11 01:16:19;;;;;;;15.95;12.23;;;10.50;99.90;;;;;;5078076;28;20403;-80
2021/04/11 01:18:47;;;;;;;15.85;12.18;;;10.50;99.90;;;;;;5077422;28;20384;-81
2021/04/11 01:21:23;;;;;;;15.43;11.98;;;10.50;99.90;;;;;;5093299;28;20386;-80
2021/04/11 01:24:01;;;;;;;19.50;12.70;;;10.60;99.90;;;;;;5092517;28;20399;-78
2021/04/11 01:26:27;;;;;;;18.67;13.30;;;10.50;99.90;;;;;;5092906;28;20406;-77
2021/04/11 01:28:55;;;;;;;20.77;13.68;;;10.50;99.90;;;;;;5076561;28;20372;-79
2021/04/11 01:31:21;;;;;;;15.85;12.35;;;10.50;99.90;;;;;;5111491;28;20385;-79
2021/04/11 01:33:51;;;;;;;15.95;13.70;;;10.50;99.90;;;;;;5114662;28;20378;-79
2021/04/11 01:36:21;;;;;;;18.45;12.98;;;10.50;99.90;;;;;;5066920;22;20429;-76
2021/04/11 01:38:48;;;;;;;17.90;13.77;;;10.50;99.90;;;;;;5051385;28;20423;-76
2021/04/11 01:41:37;;;;;;;20.02;13.75;;;10.60;99.90;;;;;;5050956;28;20385;-75
2021/04/11 01:44:04;;;;;;;18.70;13.70;;;10.60;99.90;;;;;;5051131;28;20499;-75
2021/04/11 01:46:30;;;;;;;19.80;13.13;;;10.60;99.90;;;;;;5051101;28;20969;-75
2021/04/11 01:48:57;;;;;;;18.60;12.50;;;10.60;99.90;;;;;;5049744;28;20381;-76
2021/04/11 01:51:27;;;;;;;24.35;13.80;;;10.60;99.90;;;;;;5051373;28;20389;-76
2021/04/11 01:53:54;;;;;;;18.17;13.70;;;10.60;99.90;;;;;;5050884;28;20852;-75
2021/04/11 01:56:20;;;;;;;18.20;13.60;;;10.60;99.90;;;;;;5051210;28;20731;-76
2021/04/11 01:58:46;;;;;;;20.60;14.27;;;10.60;99.90;;;;;;5044649;28;20385;-75
2021/04/11 02:01:29;;;;;;;20.77;14.18;;;10.60;99.90;;;;;;5032196;28;20445;-76
2021/04/11 02:04:06;;;;;;;20.50;14.43;;;10.60;99.90;;;;;;5035557;28;20442;-76
2021/04/11 02:06:40;;;;;;;19.20;14.23;;;10.60;99.90;;;;;;5035752;28;20383;-77
2021/04/11 02:09:18;;;;;;;16.70;14.13;;;10.60;99.90;;;;;;5031010;28;20959;-76
2021/04/11 02:11:45;;;;;;;22.17;14.18;;;10.60;99.90;;;;;;5044821;28;20401;-77
2021/04/11 02:14:12;;;;;;;24.90;19.05;;;10.70;99.90;;;;;;5050679;28;20769;-76
2021/04/11 02:16:37;;;;;;;23.00;15.98;;;10.80;98.00;;;;;;5044345;28;20391;-76
2021/04/11 02:19:20;;;;;;;31.98;19.30;;;10.50;84.60;;;;;;5031023;28;20383;-75
2021/04/11 02:22:12;;;;;;;28.50;18.23;;;9.90;93.30;;;;;;5030869;28;20822;-76
2021/04/11 02:24:40;;;;;;;29.60;20.55;;;9.50;97.00;;;;;;5030578;28;20743;-75
2021/04/11 02:27:07;;;;;;;32.58;22.38;;;9.20;99.90;;;;;;5029341;28;20447;-75
2021/04/11 02:29:34;;;;;;;30.83;21.20;;;9.20;99.90;;;;;;5033603;28;20408;-75
2021/04/11 02:32:00;;;;;;;30.52;19.70;;;9.20;99.90;;;;;;5043522;28;20387;-75
2021/04/11 02:34:31;;;;;;;34.58;21.75;;;9.10;99.90;;;;;;5036448;28;20438;-75
2021/04/11 02:37:19;;;;;;;33.03;22.42;;;9.00;99.90;;;;;;5050896;28;20390;-75
2021/04/11 02:39:46;;;;;;;31.15;20.73;;;8.80;99.90;;;;;;5042146;28;20401;-75
2021/04/11 02:42:22;;;;;;;27.52;18.70;;;8.80;99.90;;;;;;5050613;28;20396;-75
2021/04/11 02:44:51;;;;;;;32.08;17.48;;;8.70;99.90;;;;;;5049004;28;21171;-76
2021/04/11 02:47:17;;;;;;;24.50;16.38;;;8.40;99.90;;;;;;5050127;28;20469;-74
2021/04/11 02:49:44;;;;;;;28.50;19.10;;;8.00;99.90;;;;;;5054208;28;20795;-74
2021/04/11 02:52:26;;;;;;;27.35;19.67;;;8.00;99.90;;;;;;5053916;28;20393;-76
2021/04/11 02:54:54;;;;;;;24.63;17.02;;;7.90;99.90;;;;;;5052550;28;20529;-76
2021/04/11 02:57:20;;;;;;;19.33;13.80;;;7.90;99.90;;;;;;5050421;28;20851;-76
2021/04/11 02:59:47;;;;;;;17.25;11.35;;;8.00;99.90;;;;;;5032722;28;20403;-76
2021/04/11 03:02:14;;;;;;;15.75;11.90;;;7.80;99.90;;;;;;5033772;28;20394;-75
2021/04/11 03:04:40;;;;;;;16.58;11.77;;;7.70;99.90;;;;;;5033337;28;20402;-76
2021/04/11 03:07:19;;;;;;;13.30;10.23;;;7.70;99.90;;;;;;5033779;28;20387;-75
2021/04/11 03:09:49;;;;;;;10.43;8.60;;;7.70;99.90;;;;;;5033888;28;20387;-74
2021/04/11 03:12:17;;;;;;;10.77;8.80;;;7.60;99.90;;;;;;5050404;28;20741;-74
2021/04/11 03:14:43;;;;;;;10.43;8.25;;;7.50;99.90;;;;;;5053158;28;20442;-74
2021/04/11 03:17:11;;;;;;;12.27;8.60;;;7.50;99.90;;;;;;5048815;28;20397;-72
2021/04/11 03:19:43;;;;;;;8.80;7.40;;;7.70;99.90;;;;;;5034408;28;20790;-73
2021/04/11 03:22:11;;;;;;;9.15;6.18;;;7.50;99.90;;;;;;5031822;28;20466;-75
2021/04/11 03:24:37;;;;;;;11.53;8.37;;;7.20;99.90;;;;;;5039863;28;20511;-74
2021/04/11 03:27:26;;;;;;;9.52;7.05;;;7.20;99.90;;;;;;5044896;28;20389;-74
2021/04/11 03:29:59;;;;;;;10.00;7.38;;;7.10;99.90;;;;;;5044018;28;20818;-74
2021/04/11 03:32:32;;;;;;;9.25;6.30;;;6.90;99.90;;;;;;5031746;28;20457;-73
2021/04/11 03:35:01;;;;;;;9.20;7.93;;;6.70;99.90;;;;;;5044436;28;20405;-73
2021/04/11 03:37:30;;;;;;;9.75;7.55;;;6.70;99.90;;;;;;5052667;28;20460;-74
2021/04/11 03:39:57;;;;;;;9.35;7.70;;;6.80;99.90;;;;;;5046289;28;20488;-74
2021/04/11 03:42:27;;;;;;;9.98;7.00;;;6.80;99.90;;;;;;5032928;28;20387;-74
2021/04/11 03:44:54;;;;;;;8.75;7.38;;;6.70;99.90;;;;;;5042610;28;20459;-74
2021/04/11 03:47:31;;;;;;;8.98;7.45;;;6.70;99.90;;;;;;5052633;28;20959;-74
2021/04/11 03:50:18;;;;;;;7.82;7.03;;;6.70;99.90;;;;;;5052941;28;20476;-74
2021/04/11 03:53:23;;;;;;;5.50;4.75;;;6.50;99.90;;;;;;5045044;28;20402;-74
2021/04/11 03:55:50;;;;;;;6.60;5.30;;;6.20;99.90;;;;;;5037319;28;20771;-74
2021/04/11 03:58:24;;;;;;;8.63;6.45;;;6.10;99.90;;;;;;5038581;28;20721;-73
2021/04/11 04:00:53;;;;;;;7.83;6.50;;;6.10;99.90;;;;;;5040784;28;20864;-73
2021/04/11 04:03:22;;;;;;;7.45;6.55;;;6.10;99.90;;;;;;5040593;28;20427;-75
2021/04/11 04:05:49;;;;;;;6.60;5.82;;;6.10;99.90;;;;;;5032381;28;20414;-74
2021/04/11 04:08:15;;;;;;;7.20;5.45;;;6.10;99.90;;;;;;5032469;28;20387;-75
2021/04/11 04:10:49;;;;;;;7.68;6.82;;;6.00;99.90;;;;;;5036427;28;20870;-75
2021/04/11 04:13:48;;;;;;;12.20;9.65;;;6.00;99.90;;;;;;5052874;28;20382;-77
2021/04/11 04:16:34;;;;;;;16.13;12.20;;;6.00;99.90;;;;;;5066343;28;20385;-75
2021/04/11 04:19:14;;;;;;;15.02;11.52;;;6.00;99.90;;;;;;5069364;28;20389;-75
2021/04/11 04:22:15;;;;;;;16.00;10.55;;;6.00;99.90;;;;;;5065413;28;20386;-75
2021/04/11 04:24:48;;;;;;;11.50;9.60;;;6.00;99.90;;;;;;5026047;28;20417;-75
2021/04/11 04:27:24;;;;;;;10.95;8.27;;;6.10;99.90;;;;;;5050636;28;20830;-75
2021/04/11 04:29:52;;;;;;;8.02;6.70;;;6.10;99.90;;;;;;5051916;28;20386;-74
2021/04/11 04:32:55;;;;;;;7.90;7.07;;;6.10;97.90;;;;;;5051893;28;20430;-75
2021/04/11 04:35:27;;;;;;;9.98;7.50;;;6.00;98.70;;;;;;5041397;28;20395;-75
2021/04/11 04:38:06;;;;;;;11.57;7.65;;;6.00;96.10;;;;;;5033589;28;20383;-74
2021/04/11 04:40:34;;;;;;;13.02;9.52;;;6.00;97.60;;;;;;5031901;28;20466;-75
2021/04/11 04:43:02;;;;;;;17.45;12.00;;;6.00;99.30;;;;;;5031613;28;20391;-74
2021/04/11 04:45:34;;;;;;;25.75;17.73;;;6.00;98.80;;;;;;5031791;28;20475;-75
2021/04/11 04:48:08;;;;;;;24.75;16.30;;;5.90;98.40;;;;;;5031992;28;20375;-75
2021/04/11 04:50:45;;;;;;;25.42;16.42;;;5.90;98.10;;;;;;5032042;28;20418;-74
2021/04/11 04:53:39;;;;;;;17.27;11.90;;;5.90;99.80;;;;;;5035054;28;20384;-76
2021/04/11 04:56:07;;;;;;;17.10;11.48;;;5.90;97.30;;;;;;5033032;28;20879;-74
2021/04/11 04:58:42;;;;;;;14.40;10.23;;;5.70;97.30;;;;;;5036638;28;20387;-75
2021/04/11 05:01:21;;;;;;;15.55;11.27;;;5.70;98.40;;;;;;5036510;28;20386;-74
2021/04/11 05:03:49;;;;;;;13.20;9.87;;;5.70;96.90;;;;;;5051025;28;20807;-74
2021/04/11 05:06:20;;;;;;;13.65;9.45;;;5.60;93.80;;;;;;5031109;28;20387;-75
2021/04/11 05:08:56;;;;;;;20.55;14.85;;;5.50;94.00;;;;;;5031277;28;20407;-74
2021/04/11 05:11:29;;;;;;;20.48;14.90;;;5.60;97.70;;;;;;5030224;28;20470;-74
2021/04/11 05:14:17;;;;;;;17.90;13.77;;;5.70;95.80;;;;;;5029660;28;20396;-73
2021/04/11 05:16:53;;;;;;;21.70;14.02;;;5.70;95.50;;;;;;5038598;28;20409;-73
2021/04/11 05:19:35;;;;;;;28.80;17.30;;;5.50;93.20;;;;;;5050992;28;20420;-73
2021/04/11 05:22:12;;;;;;;25.52;14.85;;;5.40;94.90;;;;;;5050937;28;20727;-73
2021/04/11 05:24:51;;;;;;;23.85;16.25;;;5.30;95.00;;;;;;5048913;28;20397;-75
2021/04/11 05:27:41;;;;;;;31.63;18.88;;;5.40;98.20;;;;;;5051520;28;20417;-75
2021/04/11 05:30:13;;;;;;;31.73;20.33;;;5.40;98.30;;;;;;5044385;28;20498;-75
2021/04/11 05:32:39;;;;;;;23.53;16.80;;;5.50;97.50;;;;;;5030481;28;20445;-74
2021/04/11 05:35:05;;;;;;;19.80;14.23;;;5.60;96.30;;;;;;5043272;28;20401;-74
2021/04/11 05:38:15;;;;;;;17.58;13.82;;;5.60;96.20;;;;;;5050271;28;20435;-74
2021/04/11 05:41:07;;;;;;;25.17;17.42;;;5.60;97.70;;;;;;5050223;28;20378;-75
2021/04/11 05:43:51;;;;;;;31.30;21.35;;;5.60;97.40;;;;;;5049745;28;20381;-74
2021/04/11 05:46:23;;;;;;;25.15;17.50;;;5.50;98.00;;;;;;5049995;28;20401;-74
2021/04/11 05:49:07;;;;;;;25.95;18.10;;;5.50;99.60;;;;;;5050054;28;20378;-75
2021/04/11 05:51:40;;;;;;;23.55;18.45;;;5.60;98.70;;;;;;5050231;28;20474;-74
2021/04/11 05:54:14;;;;;;;23.25;16.85;;;5.50;99.90;;;;;;5048944;28;20898;-75
2021/04/11 05:56:48;;;;;;;20.95;13.00;;;5.70;98.40;;;;;;5033770;28;20476;-75
2021/04/11 05:59:18;;;;;;;19.63;14.82;;;5.50;94.20;;;;;;5032792;28;20391;-74
2021/04/11 06:01:54;;;;;;;23.55;15.57;;;5.40;97.70;;;;;;5028885;28;20794;-74
2021/04/11 06:04:23;;;;;;;25.90;16.20;;;5.40;97.40;;;;;;5034267;28;20402;-74
2021/04/11 06:06:55;;;;;;;28.45;18.70;;;5.30;97.60;;;;;;5050536;28;20382;-74
2021/04/11 06:09:51;;;;;;;26.40;18.73;;;5.30;98.60;;;;;;5050659;28;20417;-75
2021/04/11 06:12:20;;;;;;;27.77;19.70;;;5.40;99.90;;;;;;5050549;28;20415;-75
2021/04/11 06:14:51;;;;;;;27.13;17.15;;;5.50;99.90;;;;;;5052123;28;20396;-74
2021/04/11 06:17:17;;;;;;;28.20;19.52;;;5.50;97.40;;;;;;5049294;28;20381;-74
2021/04/11 06:19:44;;;;;;;28.63;18.20;;;5.50;99.90;;;;;;5050639;28;20377;-76
2021/04/11 06:22:33;;;;;;;22.48;15.70;;;5.60;99.90;;;;;;5050427;28;20746;-76
2021/04/11 06:25:11;;;;;;;16.63;12.57;;;5.60;94.30;;;;;;5053960;28;20409;-75
2021/04/11 06:28:00;;;;;;;16.23;10.50;;;5.50;92.70;;;;;;5054198;28;20443;-74
2021/04/11 06:30:29;;;;;;;19.70;13.27;;;5.30;94.10;;;;;;5042980;28;20446;-75
2021/04/11 06:33:02;;;;;;;21.73;12.70;;;5.30;97.30;;;;;;5034058;28;20367;-75
2021/04/11 06:35:40;;;;;;;17.17;12.25;;;5.30;98.20;;;;;;5033707;28;20892;-75
2021/04/11 06:38:09;;;;;;;19.27;12.30;;;5.40;94.50;;;;;;5034279;28;20867;-74
2021/04/11 06:40:41;;;;;;;18.97;12.13;;;5.30;94.50;;;;;;5034139;28;20390;-74
2021/04/11 06:43:09;;;;;;;21.70;12.70;;;5.30;95.70;;;;;;5033945;28;20450;-74
2021/04/11 06:45:51;;;;;;;16.08;10.30;;;5.30;96.70;;;;;;5033879;28;20860;-73
2021/04/11 06:48:50;;;;;;;19.02;11.57;;;5.10;94.90;;;;;;5033980;28;20406;-75
2021/04/11 06:51:34;;;;;;;15.38;10.18;;;5.20;96.40;;;;;;5033688;28;20375;-74
2021/04/11 06:54:38;;;;;;;19.90;11.93;;;5.10;94.20;;;;;;5037282;28;20476;-74
2021/04/11 06:57:26;;;;;;;16.67;9.10;;;5.20;95.60;;;;;;5053554;28;20398;-74
2021/04/11 07:00:01;;;;;;;15.73;11.02;;;5.10;93.10;;;;;;5048841;28;20459;-74
2021/04/11 07:02:54;;;;;;;14.55;10.15;;;5.10;94.10;;;;;;5053317;28;21290;-74
2021/04/11 07:05:34;;;;;;;15.05;8.88;;;5.20;93.50;;;;;;5053428;28;20412;-74
2021/04/11 07:08:26;;;;;;;15.80;10.35;;;5.20;90.20;;;;;;5038939;28;20391;-74
2021/04/11 07:11:17;;;;;;;14.63;10.50;;;5.30;92.70;;;;;;5034448;28;20372;-75
2021/04/11 07:14:08;;;;;;;13.82;9.18;;;5.30;91.00;;;;;;5041023;28;20464;-74
2021/04/11 07:16:49;;;;;;;9.10;7.18;;;5.40;90.70;;;;;;5052872;28;20372;-75
2021/04/11 07:19:41;;;;;;;11.90;8.20;;;5.40;87.10;;;;;;5055663;28;20469;-76
2021/04/11 07:22:43;;;;;;;11.80;6.63;;;5.30;86.60;;;;;;5048144;28;20408;-72
2021/04/11 07:25:43;;;;;;;10.88;7.43;;;5.10;90.30;;;;;;5033959;28;20449;-73
2021/04/11 07:28:35;;;;;;;19.65;11.77;;;5.10;93.00;;;;;;5038305;28;20870;-73
2021/04/11 07:31:14;;;;;;;18.55;13.15;;;5.10;97.90;;;;;;5038878;28;20494;-74
2021/04/11 07:34:14;;;;;;;34.08;19.17;;;5.20;98.60;;;;;;5036696;28;20453;-73
2021/04/11 07:37:02;;;;;;;23.83;14.60;;;5.60;99.90;;;;;;5049238;28;20826;-74
2021/04/11 07:39:40;;;;;;;24.05;15.10;;;5.80;93.10;;;;;;5051515;28;20762;-76
2021/04/11 07:42:25;;;;;;;17.45;12.95;;;5.70;91.60;;;;;;5047405;28;20401;-76
2021/04/11 07:45:05;;;;;;;23.38;14.57;;;5.60;88.80;;;;;;5032857;28;20413;-74
2021/04/11 07:48:03;;;;;;;26.08;16.00;;;5.50;90.80;;;;;;5049928;28;20400;-77
2021/04/11 07:50:41;;;;;;;20.77;14.35;;;5.40;97.50;;;;;;5051479;28;20393;-75
2021/04/11 07:53:35;;;;;;;22.40;15.02;;;5.30;99.30;;;;;;5046116;28;20440;-75
2021/04/11 07:56:19;;;;;;;26.90;17.57;;;5.20;99.90;;;;;;5040988;28;20961;-76
2021/04/11 07:59:21;;;;;;;25.95;17.50;;;5.10;99.90;;;;;;5046012;28;20400;-75
2021/04/11 08:02:14;;;;;;;23.17;15.80;;;5.20;99.90;;;;;;5038206;28;20409;-74
2021/04/11 08:04:55;;;;;;;20.80;13.80;;;5.20;99.90;;;;;;5042406;28;20415;-74
2021/04/11 08:07:41;;;;;;;24.42;14.07;;;5.30;99.90;;;;;;5038687;28;21017;-75
2021/04/11 08:10:39;;;;;;;15.27;10.10;;;5.30;99.40;;;;;;5038535;28;20464;-74
2021/04/11 08:13:29;;;;;;;15.23;10.80;;;5.20;97.80;;;;;;5047050;28;20468;-73
2021/04/11 08:16:04;;;;;;;15.18;10.10;;;5.10;99.90;;;;;;5043375;28;20833;-74
2021/04/11 08:18:48;;;;;;;13.93;10.50;;;5.20;99.90;;;;;;5049313;28;20393;-73
2021/04/11 08:21:35;;;;;;;20.38;11.00;;;5.20;99.90;;;;;;5038482;28;20409;-74
2021/04/11 08:24:47;;;;;;;15.50;11.20;;;5.10;99.70;;;;;;5037217;28;20916;-74
2021/04/11 08:27:47;;;;;;;14.85;9.60;;;5.20;99.90;;;;;;5036240;28;20399;-73
2021/04/11 08:30:50;;;;;;;11.77;9.38;;;5.30;97.30;;;;;;5046192;28;20393;-74
2021/04/11 08:33:39;;;;;;;10.30;7.45;;;5.30;99.00;;;;;;5050034;28;20403;-73
2021/04/11 08:36:39;;;;;;;10.43;8.88;;;5.20;99.90;;;;;;5043576;28;20918;-73
2021/04/11 08:39:25;;;;;;;14.82;10.40;;;5.30;99.90;;;;;;5030876;28;20403;-75
2021/04/11 08:42:12;;;;;;;15.65;9.38;;;5.50;99.90;;;;;;5048214;28;20393;-74
2021/04/11 08:44:49;;;;;;;15.15;10.90;;;5.40;99.90;;;;;;5047369;28;20411;-75
2021/04/11 08:47:45;;;;;;;13.93;10.50;;;5.60;99.90;;;;;;5039999;28;20389;-74
2021/04/11 08:50:22;;;;;;;10.77;8.47;;;5.60;96.20;;;;;;5045268;28;21054;-75
2021/04/11 08:53:22;;;;;;;13.35;9.43;;;5.60;93.30;;;;;;5046048;28;20393;-74
2021/04/11 08:56:16;;;;;;;10.77;7.50;;;5.50;95.40;;;;;;5044871;28;20906;-74
2021/04/11 08:58:53;;;;;;;8.87;7.10;;;5.40;97.10;;;;;;5042414;28;20438;-74
2021/04/11 09:01:44;;;;;;;14.48;7.70;;;5.30;99.90;;;;;;5049300;28;20416;-75
2021/04/11 09:04:13;;;;;;;8.57;6.93;;;5.20;99.90;;;;;;5049992;28;20413;-74
2021/04/11 09:07:07;;;;;;;9.57;7.97;;;5.30;99.90;;;;;;5039759;28;20478;-75
2021/04/11 09:10:00;;;;;;;6.53;5.70;;;5.40;99.90;;;;;;5046836;28;20397;-74
2021/04/11 09:13:09;;;;;;;6.22;5.57;;;5.40;98.10;;;;;;5043854;28;20472;-75
2021/04/11 09:15:45;;;;;;;10.50;8.30;;;5.40;97.80;;;;;;5044726;28;20397;-75
2021/04/11 09:18:34;;;;;;;13.70;7.97;;;5.40;95.50;;;;;;5037098;28;20404;-75
2021/04/11 09:21:28;;;;;;;7.25;6.22;;;5.40;99.60;;;;;;5043241;28;20485;-74
2021/04/11 09:24:11;;;;;;;6.03;5.38;;;5.30;96.70;;;;;;5047660;28;20591;-74
2021/04/11 09:27:06;;;;;;;7.93;6.10;;;5.30;97.20;;;;;;5045235;28;20396;-74
2021/04/11 09:29:52;;;;;;;9.05;6.72;;;5.20;99.10;;;;;;5048441;28;20447;-74
2021/04/11 09:32:44;;;;;;;9.10;6.90;;;5.30;98.40;;;;;;5038933;28;20483;-73
2021/04/11 09:35:50;;;;;;;7.63;6.32;;;5.40;95.90;;;;;;5059651;28;20568;-75
2021/04/11 09:38:18;;;;;;;9.80;7.20;;;5.30;96.50;;;;;;5047560;28;20419;-75
2021/04/11 09:41:17;;;;;;;12.48;8.00;;;5.30;99.00;;;;;;5051035;28;20803;-75
2021/04/11 09:43:58;;;;;;;6.32;5.72;;;5.40;95.70;;;;;;5045736;28;20385;-75
2021/04/11 09:46:42;;;;;;;6.18;5.65;;;5.50;91.00;;;;;;5041868;28;20399;-74
2021/04/11 09:49:34;;;;;;;6.57;5.50;;;5.70;90.30;;;;;;5033917;28;20755;-74
2021/04/11 09:52:37;;;;;;;4.93;4.50;;;5.90;88.70;;;;;;5060321;28;20387;-72
2021/04/11 09:55:20;;;;;;;4.70;4.30;;;5.90;81.40;;;;;;5045439;28;20417;-74
2021/04/11 09:58:24;;;;;;;5.20;4.47;;;5.90;84.80;;;;;;5053891;28;20396;-74
2021/04/11 10:00:55;;;;;;;5.15;4.75;;;5.90;83.20;;;;;;5052515;28;20397;-74
2021/04/11 10:03:46;;;;;;;5.53;5.03;;;5.90;84.30;;;;;;5035816;28;20456;-74
2021/04/11 10:06:56;;;;;;;5.97;5.38;;;6.00;87.00;;;;;;5049390;28;20401;-74
2021/04/11 10:09:54;;;;;;;7.22;6.55;;;6.10;84.60;;;;;;5024903;28;20432;-74
2021/04/11 10:12:23;;;;;;;5.47;4.97;;;6.20;80.60;;;;;;5052517;28;20402;-74
2021/04/11 10:15:14;;;;;;;5.28;4.78;;;6.00;68.10;;;;;;5063985;28;20897;-75
2021/04/11 10:17:45;;;;;;;5.45;4.85;;;5.90;74.40;;;;;;5041691;28;20494;-74
2021/04/11 10:20:48;;;;;;;6.82;6.18;;;5.90;70.20;;;;;;5039757;28;20851;-74
2021/04/11 10:23:21;;;;;;;5.95;5.40;;;6.00;73.70;;;;;;5004830;28;20386;-74
2021/04/11 10:26:03;;;;;;;5.90;5.40;;;6.00;73.30;;;;;;5042319;28;20419;-74
2021/04/11 10:28:39;;;;;;;2.83;2.63;;;6.00;75.60;;;;;;5045343;28;20584;-75
2021/04/11 10:31:18;;;;;;;1.75;1.60;;;6.00;75.10;;;;;;5046711;28;20191;-73
2021/04/11 10:33:57;;;;;;;4.28;2.90;;;5.80;71.20;;;;;;5045622;28;20222;-72
2021/04/11 10:36:22;;;;;;;2.45;1.98;;;5.60;71.60;;;;;;5052980;28;20210;-73
2021/04/11 10:38:50;;;;;;;;;;;5.50;71.30;;;;;;5052189;28;20028;-73
2021/04/11 10:41:25;;;;;;;;;;;5.30;78.90;;;;;;5050940;28;19983;-72
2021/04/11 10:44:03;;;;;;;;;;;5.20;80.50;;;;;;5051854;28;20278;-72
2021/04/11 10:46:47;;;;;;;;;;;5.30;83.40;;;;;;5052118;28;20006;-73
2021/04/11 10:49:31;;;;;;;;;;;5.20;79.10;;;;;;5054250;28;19908;-72
2021/04/11 10:52:09;;;;;;;;;;;5.30;87.10;;;;;;5048072;28;19920;-75
2021/04/11 10:54:53;;;;;;;;;;;5.40;88.20;;;;;;5050668;28;19916;-75
2021/04/11 10:57:40;;;;;;;;;;;5.40;84.10;;;;;;5041022;28;19916;-74
2021/04/11 11:00:11;;;;;;;;;;;5.60;85.00;;;;;;5048348;28;20000;-75
2021/04/11 11:02:36;;;;;;;;;;;5.70;85.20;;;;;;5054856;28;19974;-74
2021/04/11 11:05:08;;;;;;;;;;;5.60;78.30;;;;;;5043654;28;19917;-74
2021/04/11 11:07:39;;;;;;;;;;;5.70;77.80;;;;;;5048300;28;19952;-75
2021/04/11 11:10:09;;;;;;;;;;;5.80;76.80;;;;;;5034775;28;19909;-75
2021/04/11 11:12:56;;;;;;;;;;;5.80;77.10;;;;;;5044556;28;20278;-75
2021/04/11 11:15:34;;;;;;;;;;;5.90;80.60;;;;;;5045315;28;19919;-74
2021/04/11 11:17:59;;;;;;;;;;;5.70;78.00;;;;;;5038183;28;19917;-74
2021/04/11 11:20:43;;;;;;;;;;;5.60;79.40;;;;;;5051835;28;19928;-75
2021/04/11 11:23:11;;;;;;;;;;;5.70;80.50;;;;;;5048667;28;19999;-74
2021/04/11 11:25:43;;;;;;;;;;;5.80;84.40;;;;;;5053205;28;19966;-74
2021/04/11 11:28:17;;;;;;;;;;;6.00;78.10;;;;;;5044619;28;20340;-76
2021/04/11 11:31:01;;;;;;;;;;;5.80;77.00;;;;;;5052106;28;20336;-75
2021/04/11 11:33:26;;;;;;;;;;;5.70;83.30;;;;;;5043903;28;20025;-76
2021/04/11 11:35:54;;;;;;;;;;;5.80;81.10;;;;;;5045525;28;20412;-76
2021/04/11 11:38:38;;;;;;;;;;;5.90;71.90;;;;;;5039443;28;19986;-75
2021/04/11 11:41:11;;;;;;;;;;;5.90;76.90;;;;;;5049683;28;19963;-75
2021/04/11 11:43:40;;;;;;;;;;;5.90;75.40;;;;;;5040060;28;19913;-74
2021/04/11 11:46:05;;;;;;;;;;;6.10;74.90;;;;;;5047065;28;19920;-73
2021/04/11 11:48:40;;;;;;;;;;;6.20;72.70;;;;;;5055927;28;19940;-75
2021/04/11 11:51:15;;;;;;;;;;;6.20;73.20;;;;;;5045166;28;19996;-74
2021/04/11 11:53:43;;;;;;;;;;;6.20;71.90;;;;;;5050972;28;20003;-75
2021/04/11 11:56:11;;;;;;;;;;;6.10;77.20;;;;;;5050129;28;19915;-74
2021/04/11 11:58:42;;;;;;;;;;;6.10;79.40;;;;;;5042477;28;20242;-75
2021/04/11 12:01:18;;;;;;;;;;;6.20;74.40;;;;;;5043548;28;20378;-74
2021/04/11 12:03:43;;;;;;;;;;;6.30;71.40;;;;;;5043245;28;19909;-76
2021/04/11 12:06:08;;;;;;;;;;;6.50;76.40;;;;;;5050972;28;20408;-75
2021/04/11 12:08:41;;;;;;;;;;;6.60;68.90;;;;;;5041239;28;19909;-77
2021/04/11 12:11:09;;;;;;;;;;;6.60;69.20;;;;;;5034467;28;19999;-74
2021/04/11 12:13:42;;;;;;;;;;;6.80;71.30;;;;;;5034053;28;19920;-77
2021/04/11 12:16:14;;;;;;;;;;;6.90;68.90;;;;;;5034330;28;19905;-76
2021/04/11 12:18:55;;;;;;;;;;;6.90;65.70;;;;;;5052617;28;19959;-75
2021/04/11 12:21:28;;;;;;;;;;;7.00;64.80;;;;;;5051906;28;19904;-75
2021/04/11 12:23:57;;;;;;;;;;;7.00;66.90;;;;;;5053290;28;20377;-75
2021/04/11 12:26:24;;;;;;;;;;;6.90;58.60;;;;;;5053251;28;19905;-75
2021/04/11 12:28:50;;;;;;;;;;;6.80;60.30;;;;;;5053132;28;19908;-74
2021/04/11 12:31:25;;;;;;;;;;;6.80;62.60;;;;;;5035191;28;19905;-74
2021/04/11 12:33:56;;;;;;;;;;;6.70;62.50;;;;;;5034651;28;19905;-75
2021/04/11 12:36:40;;;;;;;;;;;6.70;64.30;;;;;;5033912;28;19917;-75
2021/04/11 12:39:07;;;;;;;;;;;6.80;64.70;;;;;;5034609;28;19913;-75
2021/04/11 12:41:59;;;;;;;;;;;6.90;64.10;;;;;;5033098;28;19966;-74
2021/04/11 12:44:30;;;;;;;;;;;7.20;60.00;;;;;;5002056;28;20321;-76
2021/04/11 12:47:08;;;;;;;;;;;7.70;61.60;;;;;;5033679;28;19905;-75
2021/04/11 12:49:40;;;;;;;;;;;8.20;53.10;;;;;;5033240;28;20351;-74
2021/04/11 12:52:17;;;;;;;;;;;8.50;52.00;;;;;;5033069;28;19905;-75
2021/04/11 12:54:42;;;;;;;;;;;8.60;46.30;;;;;;5033078;28;19905;-76
2021/04/11 12:57:31;;;;;;;;;;;8.50;50.70;;;;;;5032765;28;19905;-76
2021/04/11 13:00:10;;;;;;;;;;;8.20;48.60;;;;;;5044662;28;19905;-76
2021/04/11 13:02:50;;;;;;;;;;;8.00;51.70;;;;;;5051501;28;19908;-76
2021/04/11 13:05:54;;;;;;;;;;;7.70;56.20;;;;;;5050876;28;19908;-76
2021/04/11 13:08:31;;;;;;;;;;;7.60;54.60;;;;;;4971472;28;20016;-76
2021/04/11 13:11:09;;;;;;;;;;;7.40;57.50;;;;;;4971726;28;19989;-76
2021/04/11 13:13:43;;;;;;;;;;;7.30;55.30;;;;;;5009029;28;19932;-75
2021/04/11 13:16:27;;;;;;;;;;;7.30;59.80;;;;;;5035222;28;19911;-75
2021/04/11 13:19:02;;;;;;;;;;;7.40;59.90;;;;;;5052175;28;19991;-75
2021/04/11 13:21:37;;;;;;;;;;;7.40;55.60;;;;;;5052202;28;19911;-74
2021/04/11 13:24:03;;;;;;;;;;;7.40;56.50;;;;;;5051855;28;19919;-74
2021/04/11 13:26:47;;;;;;;;;;;7.30;58.10;;;;;;5052090;28;19909;-74
2021/04/11 13:29:18;;;;;;;;;;;7.20;55.80;;;;;;5051793;28;19905;-75
2021/04/11 13:31:50;;;;;;;;;;;7.20;59.70;;;;;;5031006;28;19905;-75
2021/04/11 13:34:25;;;;;;;;;;;7.10;60.40;;;;;;5042251;28;20399;-75
2021/04/11 13:36:51;;;;;;;;;;;7.20;59.50;;;;;;5070311;23;19921;-78
2021/04/11 13:39:22;;;;;;;;;;;7.20;60.30;;;;;;5055817;28;19905;-77
2021/04/11 13:41:54;;;;;;;;;;;7.10;59.60;;;;;;5056641;28;19905;-76
2021/04/11 13:44:22;;;;;;;;;;;7.20;59.70;;;;;;5056455;28;20376;-77
2021/04/11 13:46:54;;;;;;;;;;;7.20;59.60;;;;;;5072431;28;20004;-76
2021/04/11 13:49:33;;;;;;;;;;;7.20;55.80;;;;;;5056780;28;19912;-76
2021/04/11 13:51:59;;;;;;;;;;;7.20;56.20;;;;;;5055320;28;19913;-78
2021/04/11 13:54:31;;;;;;;;;;;7.00;54.00;;;;;;5067074;28;19950;-79
2021/04/11 13:57:08;;;;;;;;;;;7.10;55.20;;;;;;5069490;28;20403;-74
2021/04/11 13:59:39;;;;;;;;;;;7.10;51.40;;;;;;5076505;28;19904;-75